Tuesday, April 24, 2018, 8:42 AM GMT
Back to Local

CYUL, Montreal / Pierre Elliot Trudeau International Airport, Que

Location: , , Canada Lat: 45.467
Local Time: 8:42 AM GMT ( 8:42 GMT) Lon: -73.75
Time Zone: GMT Elev: 101 ft

Show me the last for .
Show Decoded

2018-04-24 08:00 METAR CYUL 240800Z VRB02KT 15SM FEW240 06/M03 A3023 RMK CI1 SLP238 =
2018-04-24 07:00 METAR CYUL 240700Z 13003KT 15SM FEW250 08/M04 A3023 RMK CI2 SLP238 =
2018-04-24 06:00 METAR CYUL 240600Z VRB02KT 15SM FEW250 07/M04 A3024 RMK CI1 SLP243 =
2018-04-24 05:00 METAR CYUL 240500Z 17002KT 15SM SKC 09/M06 A3024 RMK SLP243 =
2018-04-24 04:00 METAR CYUL 240400Z 15004KT 15SM SKC 12/M07 A3024 RMK SLP243 =
2018-04-24 03:00 METAR CYUL 240300Z 14004KT 15SM SKC 13/M07 A3025 RMK SLP245 =
2018-04-24 02:00 METAR CYUL 240200Z 13004KT 15SM SKC 13/M06 A3026 RMK SLP251 =
2018-04-24 01:00 METAR CYUL 240100Z 14004KT 15SM FEW250 14/M07 A3027 RMK CI1 CI TR SLP253 =
2018-04-24 00:00 METAR CYUL 240000Z 14004KT 30SM FEW250 15/M07 A3027 RMK CI1 CI TR SLP253 =
2018-04-23 23:00 METAR CYUL 232300Z 15006KT 30SM FEW250 17/M07 A3028 RMK CI1 SLP255 =
2018-04-23 22:00 METAR CYUL 232200Z 20005KT 160V270 30SM FEW250 18/M05 A3029 RMK CI2 SLP261 =
2018-04-23 21:00 METAR CYUL 232100Z 27004KT 200V300 30SM BKN250 18/M08 A3031 RMK CI5 SLP266 =
2018-04-23 20:00 METAR CYUL 232000Z 25007KT 190V260 30SM BKN250 18/M07 A3033 RMK CI5 SLP273 =
2018-04-23 19:00 METAR CYUL 231900Z 24007KT 200V270 30SM BKN240 17/M08 A3036 RMK CI5 SLP284 =
2018-04-23 18:00 METAR CYUL 231800Z 21007KT 30SM OVC240 16/M10 A3040 RMK CI8 CONTRAILS SLP296 =
2018-04-23 17:00 METAR CYUL 231700Z 19008KT 30SM BKN250 16/M10 A3042 RMK CI7 SLP303 =
2018-04-23 16:00 METAR CYUL 231600Z 18008KT 30SM BKN250 15/M05 A3044 RMK CI6 CONTRAILS SLP311 =
2018-04-23 15:00 METAR CYUL 231500Z 18006KT 30SM SCT250 12/M04 A3046 RMK CI4 CONTRAILS SLP318 =
2018-04-23 14:00 METAR CYUL 231400Z 20006KT 30SM SCT250 10/M04 A3047 RMK CI3 SLP322 =
2018-04-23 13:00 METAR CYUL 231300Z 21006KT 30SM SCT250 08/M04 A3047 RMK CI4 SLP322 =
2018-04-23 12:00 METAR CYUL 231200Z 21004KT 190V260 30SM FEW250 06/M05 A3047 RMK CI1 CI TR SLP322
                 =
2018-04-23 11:00 METAR CYUL 231100Z 21002KT 30SM FEW250 04/M05 A3046 RMK CI1 CI TR SLP317 =
2018-04-23 10:00 METAR CYUL 231000Z 00000KT 15SM FEW240 00/M04 A3043 RMK CI1 CI TR SLP309 =
2018-04-23 09:00 METAR CYUL 230900Z 22003KT 15SM FEW040 01/M02 A3041 RMK SC1 SC TR SLP300 =

Support USWX by starting your Amazon purchase here.